Time,TemperatureF,DewpointF,PressureIn,WindDirection,WindDirectionDegrees,WindSpeedMPH,WindSpeedGustMPH,Humidity,HourlyPrecipIn,Conditions,Clouds,dailyrainin,SoftwareType,DateUTC
2013-02-01 00:03:00,34.0,27.0,29.69,SSW,208,0.0,0.0,75,0.00,,,0.00,,2013-02-01 05:03:00,
2013-02-01 00:12:00,34.0,27.0,29.69,SSW,208,0.0,0.0,75,0.00,,,0.00,,2013-02-01 05:12:00,
2013-02-01 00:22:00,34.0,27.0,29.69,SSE,158,0.0,0.0,74,0.00,,,0.00,,2013-02-01 05:22:00,
2013-02-01 00:32:00,34.0,27.0,29.69,SSE,158,0.0,0.0,74,0.00,,,0.00,,2013-02-01 05:32:00,
2013-02-01 00:42:00,34.0,27.0,29.69,SSE,158,0.0,0.0,74,0.00,,,0.00,,2013-02-01 05:42:00,
2013-02-01 00:52:00,33.0,27.0,29.68,SSE,158,0.0,0.0,78,0.00,,,0.00,,2013-02-01 05:52:00,
2013-02-01 01:02:00,32.0,26.0,29.68,SSE,158,0.0,0.0,79,0.00,,,0.00,,2013-02-01 06:02:00,
2013-02-01 01:12:00,32.0,26.0,29.68,SSE,158,0.0,0.0,79,0.00,,,0.00,,2013-02-01 06:12:00,
2013-02-01 01:22:00,32.0,27.0,29.69,SSE,158,0.0,1.0,80,0.00,,,0.00,,2013-02-01 06:22:00,
2013-02-01 01:32:00,33.0,27.0,29.68,SSW,202,0.0,2.0,79,0.00,,,0.00,,2013-02-01 06:32:00,
2013-02-01 01:42:00,33.0,27.0,29.68,SSW,202,0.0,2.0,79,0.00,,,0.00,,2013-02-01 06:42:00,
2013-02-01 01:52:00,34.0,28.0,29.68,South,187,0.0,2.0,78,0.00,,,0.00,,2013-02-01 06:52:00,
2013-02-01 02:02:00,34.0,28.0,29.67,South,188,0.0,2.0,78,0.00,,,0.00,,2013-02-01 07:02:00,
2013-02-01 02:12:00,34.0,28.0,29.67,WSW,240,0.0,2.0,78,0.00,,,0.00,,2013-02-01 07:12:00,
2013-02-01 02:22:00,34.0,28.0,29.67,WSW,240,0.0,2.0,78,0.00,,,0.00,,2013-02-01 07:22:00,
2013-02-01 02:32:00,33.0,28.0,29.66,WSW,240,0.0,0.0,81,0.00,,,0.00,,2013-02-01 07:32:00,
2013-02-01 02:42:00,33.0,28.0,29.66,WSW,240,0.0,0.0,81,0.00,,,0.00,,2013-02-01 07:42:00,
2013-02-01 02:51:00,33.0,28.0,29.66,WSW,239,0.0,1.0,80,0.00,,,0.00,,2013-02-01 07:51:00,
2013-02-01 03:01:00,35.0,29.0,29.64,SSW,194,1.0,7.0,79,0.00,,,0.00,,2013-02-01 08:01:00,
2013-02-01 03:11:00,35.0,29.0,29.64,SSW,194,1.0,7.0,79,0.00,,,0.00,,2013-02-01 08:11:00,
2013-02-01 03:21:00,35.0,29.0,29.62,SSW,194,2.0,6.0,78,0.00,,,0.00,,2013-02-01 08:21:00,
2013-02-01 03:32:00,36.0,29.0,29.61,South,185,1.0,7.0,77,0.00,,,0.00,,2013-02-01 08:32:00,
2013-02-01 03:42:00,36.0,29.0,29.61,South,185,1.0,7.0,77,0.00,,,0.00,,2013-02-01 08:42:00,
2013-02-01 03:52:00,36.0,29.0,29.61,South,185,1.0,7.0,77,0.00,,,0.00,,2013-02-01 08:52:00,
2013-02-01 04:02:00,37.0,30.0,29.60,SSW,203,3.0,8.0,76,0.00,,,0.00,,2013-02-01 09:02:00,
2013-02-01 04:11:00,37.0,30.0,29.60,SSW,203,3.0,8.0,76,0.00,,,0.00,,2013-02-01 09:11:00,
2013-02-01 04:21:00,37.0,30.0,29.60,SSW,203,3.0,8.0,76,0.00,,,0.00,,2013-02-01 09:21:00,
2013-02-01 04:32:00,37.0,30.0,29.59,SSW,198,2.0,7.0,77,0.00,,,0.00,,2013-02-01 09:32:00,
2013-02-01 04:42:00,37.0,30.0,29.59,SSW,198,2.0,7.0,77,0.00,,,0.00,,2013-02-01 09:42:00,
2013-02-01 04:52:00,37.0,31.0,29.59,SSW,198,2.0,9.0,78,0.00,,,0.00,,2013-02-01 09:52:00,
2013-02-01 05:01:00,38.0,31.0,29.57,SSW,199,2.0,9.0,76,0.00,,,0.00,,2013-02-01 10:01:00,
2013-02-01 05:11:00,38.0,31.0,29.57,SSW,199,2.0,9.0,76,0.00,,,0.00,,2013-02-01 10:11:00,
2013-02-01 05:21:00,38.0,31.0,29.57,SSW,199,2.0,9.0,76,0.00,,,0.00,,2013-02-01 10:21:00,
2013-02-01 05:32:00,38.0,31.0,29.55,SSW,193,4.0,9.0,77,0.00,,,0.00,,2013-02-01 10:32:00,
2013-02-01 05:42:00,38.0,31.0,29.55,SSW,193,4.0,9.0,77,0.00,,,0.00,,2013-02-01 10:42:00,
2013-02-01 05:53:00,38.0,31.0,29.55,SSW,193,4.0,9.0,77,0.00,,,0.00,,2013-02-01 10:53:00,
2013-02-01 06:02:00,38.0,31.0,29.57,SSW,196,3.0,7.0,77,0.00,,,0.00,,2013-02-01 11:02:00,
2013-02-01 06:11:00,38.0,31.0,29.57,SSW,196,3.0,7.0,77,0.00,,,0.00,,2013-02-01 11:11:00,
2013-02-01 06:22:00,38.0,31.0,29.57,SSW,211,2.0,8.0,77,0.00,,,0.00,,2013-02-01 11:22:00,
2013-02-01 06:32:00,38.0,32.0,29.57,WNW,299,2.0,8.0,78,0.00,,,0.00,,2013-02-01 11:32:00,
2013-02-01 06:42:00,38.0,32.0,29.57,WNW,299,2.0,8.0,78,0.00,,,0.00,,2013-02-01 11:42:00,
2013-02-01 06:53:00,38.0,32.0,29.59,WNW,283,1.0,6.0,79,0.00,,,0.00,,2013-02-01 11:53:00,
2013-02-01 07:03:00,39.0,32.0,29.60,SW,235,1.0,7.0,77,0.00,,,0.00,,2013-02-01 12:03:00,
2013-02-01 07:12:00,39.0,32.0,29.60,SW,235,1.0,7.0,77,0.00,,,0.00,,2013-02-01 12:12:00,
2013-02-01 07:23:00,40.0,33.0,29.60,WNW,290,3.0,7.0,76,0.00,,,0.00,,2013-02-01 12:23:00,
2013-02-01 07:32:00,41.0,34.0,29.61,SW,232,2.0,9.0,75,0.00,,,0.00,,2013-02-01 12:32:00,
2013-02-01 07:42:00,41.0,34.0,29.61,SW,232,2.0,9.0,75,0.00,,,0.00,,2013-02-01 12:42:00,
2013-02-01 07:52:00,41.0,34.0,29.61,SW,232,2.0,9.0,75,0.00,,,0.00,,2013-02-01 12:52:00,
2013-02-01 08:02:00,41.0,34.0,29.61,SW,232,2.0,9.0,75,0.00,,,0.00,,2013-02-01 13:02:00,
2013-02-01 15:42:00,36.0,15.0,29.91,West,266,1.0,10.0,42,0.00,,,0.00,,2013-02-01 20:42:00,
2013-02-01 15:52:00,36.0,15.0,29.91,West,266,1.0,10.0,42,0.00,,,0.00,,2013-02-01 20:52:00,
2013-02-01 16:02:00,36.0,15.0,29.93,WSW,256,3.0,14.0,42,0.00,,,0.00,,2013-02-01 21:02:00,
2013-02-01 16:22:00,35.0,14.0,29.93,North,11,4.0,12.0,42,0.00,,,0.00,,2013-02-01 21:22:00,
2013-02-01 16:32:00,35.0,14.0,29.94,NW,307,2.0,10.0,42,0.00,,,0.00,,2013-02-01 21:32:00,
2013-02-01 17:02:00,35.0,15.0,29.94,NW,308,2.0,7.0,43,0.00,,,0.00,,2013-02-01 22:02:00,
2013-02-01 17:22:00,35.0,16.0,29.95,WNW,298,1.0,5.0,45,0.00,,,0.00,,2013-02-01 22:22:00,
2013-02-01 17:32:00,34.0,15.0,29.96,West,281,1.0,5.0,45,0.00,,,0.00,,2013-02-01 22:32:00,
2013-02-01 18:02:00,33.0,16.0,29.96,NNW,342,0.0,3.0,49,0.00,,,0.00,,2013-02-01 23:02:00,
2013-02-01 18:22:00,32.0,17.0,29.96,WNW,302,0.0,1.0,54,0.00,,,0.00,,2013-02-01 23:22:00,
2013-02-01 18:32:00,31.0,18.0,29.98,WNW,302,0.0,1.0,58,0.00,,,0.00,,2013-02-01 23:32:00,
2013-02-01 18:52:00,30.0,16.0,29.98,NW,304,0.0,3.0,55,0.00,,,0.00,,2013-02-01 23:52:00,
2013-02-01 19:02:00,30.0,16.0,30.00,NNW,348,0.0,1.0,56,0.00,,,0.00,,2013-02-02 00:02:00,
2013-02-01 19:32:00,29.0,16.0,30.01,North,354,0.0,0.0,58,0.00,,,0.00,,2013-02-02 00:32:00,
2013-02-01 19:52:00,29.0,17.0,30.01,North,354,0.0,0.0,60,0.00,,,0.00,,2013-02-02 00:52:00,
2013-02-01 20:02:00,28.0,16.0,30.01,North,354,0.0,0.0,59,0.00,,,0.00,,2013-02-02 01:02:00,
2013-02-01 20:21:00,28.0,17.0,30.02,North,354,0.0,0.0,62,0.00,,,0.00,,2013-02-02 01:21:00,
2013-02-01 20:32:00,27.0,16.0,30.03,NW,311,0.0,0.0,63,0.00,,,0.00,,2013-02-02 01:32:00,
2013-02-01 20:52:00,27.0,15.0,30.03,NW,311,0.0,0.0,60,0.00,,,0.00,,2013-02-02 01:52:00,
2013-02-01 21:01:00,27.0,16.0,30.04,NW,311,0.0,0.0,62,0.00,,,0.00,,2013-02-02 02:01:00,
2013-02-01 21:32:00,26.0,17.0,30.06,NW,311,0.0,0.0,68,0.00,,,0.00,,2013-02-02 02:32:00,
2013-02-01 22:02:00,25.0,17.0,30.07,NW,311,0.0,0.0,72,0.00,,,0.00,,2013-02-02 03:02:00,
2013-02-01 22:11:00,25.0,17.0,30.07,NW,311,0.0,0.0,70,0.00,,,0.00,,2013-02-02 03:11:00,
2013-02-01 22:22:00,25.0,17.0,30.07,NW,311,0.0,0.0,70,0.00,,,0.00,,2013-02-02 03:22:00,
2013-02-01 22:32:00,24.0,16.0,30.07,NW,311,0.0,0.0,72,0.00,,,0.00,,2013-02-02 03:32:00,
2013-02-01 22:42:00,24.0,16.0,30.07,NW,311,0.0,0.0,72,0.00,,,0.00,,2013-02-02 03:42:00,
2013-02-01 22:52:00,24.0,16.0,30.07,NW,311,0.0,0.0,72,0.00,,,0.00,,2013-02-02 03:52:00,
2013-02-01 23:02:00,24.0,18.0,30.07,West,281,0.0,1.0,76,0.00,,,0.00,,2013-02-02 04:02:00,
2013-02-01 23:22:00,24.0,18.0,30.08,WNW,283,0.0,0.0,76,0.00,,,0.00,,2013-02-02 04:22:00,
2013-02-01 23:32:00,24.0,18.0,30.07,WNW,286,0.0,1.0,76,0.00,,,0.00,,2013-02-02 04:32:00,
2013-02-01 23:42:00,24.0,18.0,30.07,WNW,286,0.0,1.0,76,0.00,,,0.00,,2013-02-02 04:42:00,
2013-02-01 23:52:00,24.0,18.0,30.07,WNW,286,0.0,1.0,76,0.00,,,0.00,,2013-02-02 04:52:00,